createdAt,value
2018-02-01T00:00:52.041Z,6.20
2018-02-01T00:03:20.879Z,5.77
2018-02-01T00:05:49.718Z,6.20
2018-02-01T00:08:20.374Z,5.10
2018-02-01T00:10:50.208Z,5.20
2018-02-01T00:13:19.066Z,5.80
2018-02-01T00:15:47.916Z,5.50
2018-02-01T00:18:17.240Z,5.37
2018-02-01T00:20:46.093Z,5.63
2018-02-01T00:23:14.928Z,5.07
2018-02-01T00:25:47.630Z,5.23
2018-02-01T00:28:16.516Z,5.73
2018-02-01T00:30:45.794Z,5.97
2018-02-01T00:33:14.662Z,5.90
2018-02-01T00:38:18.032Z,5.67
2018-02-01T00:40:47.701Z,5.57
2018-02-01T00:43:16.546Z,6.23
2018-02-01T00:45:45.386Z,6.07
2018-02-01T00:48:14.250Z,5.53
2018-02-01T00:50:43.083Z,5.30
2018-02-01T00:53:11.966Z,5.90
2018-02-01T00:55:40.869Z,5.67
2018-02-01T00:58:09.705Z,4.97
2018-02-01T01:00:38.562Z,4.70
2018-02-01T01:03:07.424Z,4.90
2018-02-01T01:05:36.276Z,4.63
2018-02-01T01:08:05.119Z,4.63
2018-02-01T01:10:35.608Z,4.70
2018-02-01T01:13:04.451Z,4.20
2018-02-01T01:15:34.059Z,3.67
2018-02-01T01:18:03.638Z,3.97
2018-02-01T01:20:32.490Z,4.30
2018-02-01T01:23:01.382Z,3.57
2018-02-01T01:25:30.235Z,4.50
2018-02-01T01:27:59.109Z,4.10
2018-02-01T01:30:27.946Z,4.53
2018-02-01T01:32:56.778Z,4.10
2018-02-01T01:35:25.610Z,3.87
2018-02-01T01:37:54.530Z,4.13
2018-02-01T01:40:23.358Z,4.43
2018-02-01T01:42:52.186Z,4.50
2018-02-01T01:45:21.048Z,4.50
2018-02-01T01:47:49.924Z,4.43
2018-02-01T01:50:18.988Z,4.23
2018-02-01T01:52:47.871Z,4.40
2018-02-01T01:55:16.712Z,3.40
2018-02-01T01:57:46.090Z,3.70
2018-02-01T02:00:15.574Z,3.90
2018-02-01T02:02:44.418Z,3.77
2018-02-01T02:05:13.426Z,3.23
2018-02-01T02:07:43.252Z,3.30
2018-02-01T02:10:12.073Z,3.30
2018-02-01T02:12:40.909Z,3.50
2018-02-01T02:15:09.846Z,3.40
2018-02-01T02:17:38.676Z,3.40
2018-02-01T02:20:07.530Z,3.50
2018-02-01T02:22:36.408Z,3.43
2018-02-01T02:25:05.252Z,3.40
2018-02-01T02:27:34.066Z,3.43
2018-02-01T02:30:02.934Z,3.37
2018-02-01T02:32:31.786Z,4.17
2018-02-01T02:35:00.957Z,4.23
2018-02-01T02:37:30.466Z,3.43
2018-02-01T02:39:59.339Z,3.27
2018-02-01T02:42:28.180Z,3.37
2018-02-01T02:44:57.038Z,3.93
2018-02-01T02:47:25.890Z,3.97
2018-02-01T02:49:54.733Z,4.73
2018-02-01T02:52:23.598Z,3.97
2018-02-01T02:54:52.477Z,3.73
2018-02-01T02:57:21.378Z,3.80
2018-02-01T02:59:50.250Z,4.40
2018-02-01T03:02:19.914Z,3.60
2018-02-01T03:04:48.768Z,3.20
2018-02-01T03:07:17.632Z,3.70
2018-02-01T03:09:46.460Z,3.60
2018-02-01T03:12:15.291Z,3.10
2018-02-01T03:14:44.141Z,3.40
2018-02-01T03:17:13.694Z,3.10
2018-02-01T03:19:42.575Z,3.07
2018-02-01T03:22:11.439Z,2.77
2018-02-01T03:24:40.292Z,3.23
2018-02-01T03:27:09.171Z,3.10
2018-02-01T03:29:38.052Z,3.10
2018-02-01T03:32:06.888Z,3.07
2018-02-01T03:34:35.724Z,3.37
2018-02-01T03:37:04.656Z,2.90
2018-02-01T03:39:33.506Z,3.23
2018-02-01T03:42:02.388Z,3.17
2018-02-01T03:44:31.254Z,2.87
2018-02-01T03:47:00.086Z,3.50
2018-02-01T03:49:29.602Z,3.13
2018-02-01T03:51:58.530Z,3.50
2018-02-01T03:54:27.361Z,3.77
2018-02-01T03:56:56.191Z,2.97
2018-02-01T03:59:25.091Z,8.97
2018-02-01T04:01:53.936Z,3.67
2018-02-01T04:04:22.772Z,3.87
2018-02-01T04:06:53.335Z,5.40
2018-02-01T04:09:22.182Z,3.50
2018-02-01T04:11:51.027Z,3.57
2018-02-01T04:14:19.938Z,3.50
2018-02-01T04:16:49.490Z,3.70
2018-02-01T04:19:18.334Z,3.83
2018-02-01T04:21:47.184Z,4.47
2018-02-01T04:24:16.049Z,3.77
2018-02-01T04:26:45.727Z,5.00
2018-02-01T04:29:14.613Z,3.57
2018-02-01T04:31:43.454Z,3.23
2018-02-01T04:34:12.573Z,3.20
2018-02-01T04:36:41.481Z,2.57
2018-02-01T04:39:10.298Z,2.93
2018-02-01T04:41:40.042Z,4.80
2018-02-01T04:44:08.914Z,2.70
2018-02-01T04:46:37.760Z,3.00
2018-02-01T04:49:07.768Z,3.10
2018-02-01T04:51:36.621Z,3.03
2018-02-01T04:54:05.464Z,3.47
2018-02-01T04:56:34.304Z,3.10
2018-02-01T04:59:03.182Z,2.90
2018-02-01T05:01:32.018Z,2.87
2018-02-01T05:04:00.879Z,2.90
2018-02-01T05:06:29.972Z,3.77
2018-02-01T05:08:58.910Z,3.00
2018-02-01T05:11:27.765Z,3.60
2018-02-01T05:13:56.650Z,2.67
2018-02-01T05:16:25.536Z,3.50
2018-02-01T05:18:54.432Z,2.80
2018-02-01T05:21:23.290Z,2.10
2018-02-01T05:23:52.135Z,3.03
2018-02-01T05:26:21.016Z,3.10
2018-02-01T05:28:50.972Z,2.30
2018-02-01T05:31:19.825Z,3.73
2018-02-01T05:33:48.654Z,2.17
2018-02-01T05:36:17.548Z,2.63
2018-02-01T05:38:46.378Z,2.80
2018-02-01T05:41:15.211Z,2.87
2018-02-01T05:43:44.065Z,2.87
2018-02-01T05:46:12.921Z,2.70
2018-02-01T05:48:41.938Z,2.50
2018-02-01T05:51:10.799Z,2.80
2018-02-01T05:53:39.627Z,2.63
2018-02-01T05:56:08.489Z,3.03
2018-02-01T05:58:40.061Z,2.80
2018-02-01T06:01:08.909Z,2.70
2018-02-01T06:03:37.765Z,2.80
2018-02-01T06:06:07.321Z,2.23
2018-02-01T06:08:36.318Z,2.60
2018-02-01T06:11:05.169Z,2.80
2018-02-01T06:13:34.069Z,2.90
2018-02-01T06:16:02.978Z,3.13
2018-02-01T06:18:31.841Z,2.93
2018-02-01T06:21:00.695Z,2.10
2018-02-01T06:23:30.258Z,2.53
2018-02-01T06:25:59.117Z,2.40
2018-02-01T06:28:27.995Z,2.57
2018-02-01T06:30:56.835Z,2.80
2018-02-01T06:33:25.683Z,2.80
2018-02-01T06:35:54.575Z,2.57
2018-02-01T06:38:23.474Z,2.47
2018-02-01T06:40:52.314Z,3.03
2018-02-01T06:43:21.159Z,2.40
2018-02-01T06:45:49.994Z,2.63
2018-02-01T06:48:18.851Z,2.40
2018-02-01T06:50:47.701Z,2.17
2018-02-01T06:53:17.375Z,2.90
2018-02-01T06:55:46.229Z,2.77
2018-02-01T06:58:15.734Z,2.43
2018-02-01T07:00:49.970Z,2.73
2018-02-01T07:03:18.839Z,1.73
2018-02-01T07:05:47.672Z,2.03
2018-02-01T07:08:16.529Z,2.03
2018-02-01T07:10:45.396Z,2.67
2018-02-01T07:13:14.255Z,2.80
2018-02-01T07:15:43.090Z,2.90
2018-02-01T07:18:11.957Z,2.80
2018-02-01T07:20:41.648Z,2.70
2018-02-01T07:23:10.504Z,3.03
2018-02-01T07:25:39.364Z,3.00
2018-02-01T07:28:08.204Z,3.07
2018-02-01T07:30:37.064Z,2.20
2018-02-01T07:33:05.970Z,2.93
2018-02-01T07:35:34.806Z,2.40
2018-02-01T07:38:04.566Z,2.83
2018-02-01T07:40:34.066Z,3.10
2018-02-01T07:43:02.926Z,5.53
2018-02-01T07:45:32.695Z,6.00
2018-02-01T07:48:01.564Z,2.33
2018-02-01T07:50:31.116Z,2.80
2018-02-01T07:53:00.064Z,4.17
2018-02-01T07:55:28.948Z,3.23
2018-02-01T07:57:57.786Z,3.10
2018-02-01T08:00:26.924Z,2.93
2018-02-01T08:02:55.780Z,3.67
2018-02-01T08:05:24.642Z,3.03
2018-02-01T08:07:53.471Z,3.00
2018-02-01T08:10:22.801Z,3.43
2018-02-01T08:12:52.490Z,3.93
2018-02-01T08:15:21.362Z,4.03
2018-02-01T08:17:51.730Z,3.97
2018-02-01T08:20:20.631Z,4.23
2018-02-01T08:22:50.068Z,4.37
2018-02-01T08:25:18.975Z,4.10
2018-02-01T08:27:47.802Z,4.57
2018-02-01T08:30:16.701Z,4.10
2018-02-01T08:32:45.530Z,4.40
2018-02-01T08:35:14.368Z,4.37
2018-02-01T08:37:43.568Z,3.97
2018-02-01T08:40:13.287Z,3.90
2018-02-01T08:42:42.130Z,4.30
2018-02-01T08:45:12.814Z,4.23
2018-02-01T08:47:42.616Z,4.23
2018-02-01T08:50:11.655Z,3.57
2018-02-01T08:52:40.490Z,4.17
2018-02-01T08:55:11.110Z,3.80
2018-02-01T08:57:39.992Z,4.67
2018-02-01T09:00:08.868Z,5.07
2018-02-01T09:02:38.650Z,17.70
2018-02-01T09:05:07.498Z,12.90
2018-02-01T09:07:36.354Z,11.60
2018-02-01T09:10:05.218Z,5.73
2018-02-01T09:12:34.052Z,5.93
2018-02-01T09:15:02.936Z,19.00
2018-02-01T09:17:31.826Z,5.70
2018-02-01T09:20:00.678Z,6.03
2018-02-01T09:22:29.528Z,5.13
2018-02-01T09:24:59.048Z,8.07
2018-02-01T09:27:28.827Z,6.17
2018-02-01T09:29:58.791Z,5.53
2018-02-01T09:32:27.658Z,6.17
2018-02-01T09:34:56.504Z,5.83
2018-02-01T09:37:25.704Z,5.53
2018-02-01T09:39:56.798Z,6.00
2018-02-01T09:42:25.663Z,5.93
2018-02-01T09:44:54.508Z,5.10
2018-02-01T09:47:23.482Z,5.63
2018-02-01T09:49:52.946Z,5.20
2018-02-01T09:52:21.778Z,5.07
2018-02-01T09:54:50.667Z,6.00
2018-02-01T09:57:20.024Z,5.60
2018-02-01T09:59:48.867Z,6.00
2018-02-01T10:02:17.719Z,6.63
2018-02-01T10:04:46.560Z,6.10
2018-02-01T10:07:15.438Z,5.77
2018-02-01T10:09:44.255Z,4.73
2018-02-01T10:12:13.168Z,6.47
2018-02-01T10:14:42.022Z,5.93
2018-02-01T10:17:10.946Z,6.57
2018-02-01T10:19:39.794Z,6.13
2018-02-01T10:22:08.659Z,5.83
2018-02-01T10:24:38.052Z,6.30
2018-02-01T10:27:06.900Z,6.03
2018-02-01T10:29:35.754Z,5.60
2018-02-01T10:32:04.666Z,5.10
2018-02-01T10:34:33.567Z,5.83
2018-02-01T10:37:02.450Z,6.13
2018-02-01T10:39:31.324Z,6.87
2018-02-01T10:42:00.157Z,6.70
2018-02-01T10:44:29.024Z,6.33
2018-02-01T10:46:57.871Z,7.03
2018-02-01T10:49:26.740Z,6.37
2018-02-01T10:51:55.708Z,6.10
2018-02-01T10:54:25.262Z,6.33
2018-02-01T10:56:55.336Z,6.00
2018-02-01T11:01:58.328Z,6.33
2018-02-01T11:04:28.046Z,5.63
2018-02-01T11:06:57.846Z,6.67
2018-02-01T11:09:26.699Z,6.00
2018-02-01T11:11:56.650Z,5.53
2018-02-01T11:14:25.880Z,6.27
2018-02-01T11:16:54.776Z,4.87
2018-02-01T11:19:23.647Z,6.13
2018-02-01T11:21:52.500Z,5.70
2018-02-01T11:24:24.016Z,5.20
2018-02-01T11:26:53.346Z,5.27
2018-02-01T11:29:22.196Z,5.00
2018-02-01T11:31:51.108Z,5.53
2018-02-01T11:34:19.946Z,4.90
2018-02-01T11:36:48.852Z,5.20
2018-02-01T11:39:18.167Z,5.37
2018-02-01T11:41:47.005Z,4.97
2018-02-01T11:44:16.238Z,5.50
2018-02-01T11:46:45.164Z,5.90
2018-02-01T11:49:13.996Z,6.10
2018-02-01T11:51:42.879Z,5.60
2018-02-01T11:54:11.773Z,6.20
2018-02-01T11:56:40.606Z,6.13
2018-02-01T11:59:09.500Z,6.70
2018-02-01T12:01:38.374Z,6.80
2018-02-01T12:04:07.266Z,7.23
2018-02-01T12:06:36.100Z,7.73
2018-02-01T12:09:04.975Z,7.13
2018-02-01T12:11:34.966Z,7.47
2018-02-01T12:14:03.818Z,7.93
2018-02-01T12:16:32.716Z,7.83
2018-02-01T12:19:01.566Z,7.30
2018-02-01T12:21:30.424Z,7.97
2018-02-01T12:23:59.359Z,7.30
2018-02-01T12:26:28.788Z,8.57
2018-02-01T12:28:57.628Z,8.80
2018-02-01T12:31:26.492Z,9.10
2018-02-01T12:33:55.340Z,9.47
2018-02-01T12:36:24.185Z,9.77
2018-02-01T12:38:53.084Z,8.90
2018-02-01T12:41:21.951Z,9.63
2018-02-01T12:43:51.716Z,9.90
2018-02-01T12:46:20.664Z,8.60
2018-02-01T12:48:49.628Z,8.00
2018-02-01T12:51:19.007Z,8.27
2018-02-01T12:53:47.915Z,8.77
2018-02-01T12:56:16.942Z,8.57
2018-02-01T12:58:45.804Z,8.30
2018-02-01T13:01:14.706Z,8.77
2018-02-01T13:03:43.573Z,9.60
2018-02-01T13:06:12.460Z,11.63
2018-02-01T13:08:41.324Z,12.20
2018-02-01T13:11:10.184Z,13.77
2018-02-01T13:13:39.040Z,12.23
2018-02-01T13:16:07.924Z,12.63
2018-02-01T13:18:36.794Z,11.83
2018-02-01T13:21:05.640Z,10.47
2018-02-01T13:23:34.540Z,8.83
2018-02-01T13:26:03.396Z,10.40
2018-02-01T13:28:32.234Z,21.23
2018-02-01T13:31:01.220Z,10.37
2018-02-01T13:33:30.066Z,9.63
2018-02-01T13:35:58.967Z,7.57
2018-02-01T13:38:28.331Z,9.97
2018-02-01T13:40:57.187Z,8.30
2018-02-01T13:43:26.142Z,10.57
2018-02-01T13:45:55.016Z,8.77
2018-02-01T13:48:24.467Z,10.20
2018-02-01T13:50:53.871Z,6.30
2018-02-01T13:53:22.738Z,5.73
2018-02-01T13:55:52.266Z,5.70
2018-02-01T13:58:21.133Z,5.03
2018-02-01T14:00:49.988Z,5.73
2018-02-01T14:03:18.870Z,5.40
2018-02-01T14:05:47.699Z,5.23
2018-02-01T14:08:16.533Z,4.40
2018-02-01T14:10:45.372Z,2.83
2018-02-01T14:13:14.224Z,3.13
2018-02-01T14:15:43.081Z,2.50
2018-02-01T14:18:11.916Z,2.93
2018-02-01T14:20:40.746Z,2.23
2018-02-01T14:23:09.646Z,2.10
2018-02-01T14:25:38.496Z,2.37
2018-02-01T14:28:07.380Z,2.60
2018-02-01T14:30:36.232Z,2.37
2018-02-01T14:33:05.094Z,1.80
2018-02-01T14:35:33.929Z,2.40
2018-02-01T14:38:02.888Z,2.07
2018-02-01T14:40:31.744Z,2.53
2018-02-01T14:43:00.644Z,2.33
2018-02-01T14:45:30.244Z,2.30
2018-02-01T14:47:59.080Z,2.40
2018-02-01T14:50:27.908Z,2.10
2018-02-01T14:52:56.796Z,2.30
2018-02-01T14:55:25.626Z,2.57
2018-02-01T14:57:54.470Z,2.27
2018-02-01T15:00:23.651Z,2.10
2018-02-01T15:02:52.504Z,2.00
2018-02-01T15:05:23.738Z,2.50
2018-02-01T15:07:53.570Z,2.37
2018-02-01T15:10:22.402Z,2.00
2018-02-01T15:12:51.268Z,2.30
2018-02-01T15:15:20.177Z,2.70
2018-02-01T15:17:49.020Z,1.97
2018-02-01T15:20:17.854Z,2.30
2018-02-01T15:22:46.724Z,2.17
2018-02-01T15:25:15.604Z,2.07
2018-02-01T15:27:44.450Z,2.30
2018-02-01T15:30:13.456Z,2.37
2018-02-01T15:32:42.382Z,2.73
2018-02-01T15:35:11.248Z,3.27
2018-02-01T15:37:40.122Z,2.93
2018-02-01T15:40:09.052Z,2.77
2018-02-01T15:42:37.907Z,2.80
2018-02-01T15:45:06.768Z,2.80
2018-02-01T15:47:36.504Z,2.80
2018-02-01T15:50:07.976Z,3.27
2018-02-01T15:52:36.860Z,3.63
2018-02-01T15:55:05.703Z,4.83
2018-02-01T15:57:34.606Z,2.63
2018-02-01T16:00:03.496Z,3.57
2018-02-01T16:02:32.354Z,4.27
2018-02-01T16:05:01.203Z,3.50
2018-02-01T16:07:30.120Z,3.30
2018-02-01T16:09:58.979Z,3.23
2018-02-01T16:12:27.840Z,3.57
2018-02-01T16:14:56.726Z,4.30
2018-02-01T16:17:25.572Z,3.33
2018-02-01T16:19:54.418Z,3.03
2018-02-01T16:22:23.286Z,3.13
2018-02-01T16:24:52.124Z,2.90
2018-02-01T16:27:20.966Z,2.70
2018-02-01T16:29:49.876Z,2.47
2018-02-01T16:32:18.764Z,3.20
2018-02-01T16:34:47.613Z,4.00
2018-02-01T16:37:16.516Z,3.00
2018-02-01T16:39:45.358Z,2.67
2018-02-01T16:42:14.349Z,2.93
2018-02-01T16:44:43.224Z,3.10
2018-02-01T16:47:12.082Z,3.57
2018-02-01T16:49:40.964Z,3.13
2018-02-01T16:52:09.870Z,3.47
2018-02-01T16:54:38.752Z,3.60
2018-02-01T16:57:07.617Z,3.77
2018-02-01T16:59:37.296Z,3.37
2018-02-01T17:02:06.140Z,4.40
2018-02-01T17:04:34.970Z,3.50
2018-02-01T17:07:03.926Z,3.37
2018-02-01T17:09:32.772Z,3.50
2018-02-01T17:12:06.282Z,3.60
2018-02-01T17:14:35.406Z,4.70
2018-02-01T17:17:04.290Z,5.63
2018-02-01T17:19:33.976Z,4.07
2018-02-01T17:22:02.894Z,3.30
2018-02-01T17:24:31.840Z,3.80
2018-02-01T17:27:00.704Z,4.33
2018-02-01T17:29:29.612Z,3.47
2018-02-01T17:31:59.049Z,4.50
2018-02-01T17:34:28.150Z,10.27
2018-02-01T17:36:56.987Z,3.77
2018-02-01T17:39:26.664Z,3.63
2018-02-01T17:41:55.512Z,2.97
2018-02-01T17:44:24.366Z,4.90
2018-02-01T17:46:53.708Z,1.83
2018-02-01T17:49:23.860Z,2.00
2018-02-01T17:51:52.757Z,2.60
2018-02-01T17:54:21.613Z,2.20
2018-02-01T17:56:50.488Z,2.60
2018-02-01T17:59:19.325Z,2.33
2018-02-01T18:01:48.220Z,3.27
2018-02-01T18:04:17.912Z,1.70
2018-02-01T18:06:46.752Z,1.80
2018-02-01T18:09:15.660Z,1.87
2018-02-01T18:11:44.488Z,4.13
2018-02-01T18:14:13.921Z,3.53
2018-02-01T18:16:42.800Z,2.23
2018-02-01T18:19:11.645Z,1.90
2018-02-01T18:21:40.487Z,2.20
2018-02-01T18:24:09.331Z,2.03
2018-02-01T18:26:38.184Z,2.60
2018-02-01T18:29:07.025Z,4.00
2018-02-01T18:31:35.896Z,2.87
2018-02-01T18:34:04.776Z,3.30
2018-02-01T18:36:33.606Z,4.07
2018-02-01T18:39:03.212Z,4.20
2018-02-01T18:41:32.050Z,3.30
2018-02-01T18:44:00.907Z,3.67
2018-02-01T18:46:29.772Z,3.50
2018-02-01T18:48:58.616Z,4.07
2018-02-01T18:51:27.472Z,4.07
2018-02-01T18:53:56.355Z,3.57
2018-02-01T18:56:25.229Z,3.13
2018-02-01T18:58:54.059Z,3.87
2018-02-01T19:01:22.916Z,3.27
2018-02-01T19:03:51.761Z,3.80
2018-02-01T19:06:20.600Z,3.80
2018-02-01T19:08:49.483Z,3.00
2018-02-01T19:11:19.225Z,3.00
2018-02-01T19:13:48.048Z,3.00
2018-02-01T19:16:17.173Z,3.73
2018-02-01T19:18:46.020Z,4.20
2018-02-01T19:21:14.855Z,4.33
2018-02-01T19:23:44.260Z,4.20
2018-02-01T19:26:13.105Z,3.83
2018-02-01T19:28:41.973Z,3.30
2018-02-01T19:31:10.910Z,3.67
2018-02-01T19:33:40.228Z,4.07
2018-02-01T19:36:09.086Z,4.07
2018-02-01T19:38:38.177Z,3.70
2018-02-01T19:41:07.016Z,3.53
2018-02-01T19:43:41.676Z,4.20
2018-02-01T19:46:10.555Z,3.33
2018-02-01T19:48:40.032Z,3.90
2018-02-01T19:51:08.915Z,4.07
2018-02-01T19:53:42.346Z,4.10
2018-02-01T19:56:11.211Z,4.27
2018-02-01T19:58:40.065Z,6.57
2018-02-01T20:01:08.911Z,4.37
2018-02-01T20:03:37.801Z,11.43
2018-02-01T20:06:06.687Z,4.77
2018-02-01T20:08:35.551Z,5.30
2018-02-01T20:11:04.439Z,9.73
2018-02-01T20:13:33.281Z,15.00
2018-02-01T20:16:02.647Z,9.37
2018-02-01T20:18:31.551Z,5.20
2018-02-01T20:21:00.437Z,9.10
2018-02-01T20:23:29.273Z,4.47
2018-02-01T20:26:02.106Z,4.33
2018-02-01T20:28:31.275Z,10.27
2018-02-01T20:31:00.111Z,4.80
2018-02-01T20:33:28.971Z,4.40
2018-02-01T20:35:57.818Z,4.37
2018-02-01T20:38:26.662Z,4.80
2018-02-01T20:40:55.717Z,4.67
2018-02-01T20:43:24.555Z,4.90
2018-02-01T20:45:54.099Z,4.40
2018-02-01T20:48:23.088Z,4.67
2018-02-01T20:50:52.371Z,6.77
2018-02-01T20:53:21.247Z,5.73
2018-02-01T20:55:50.096Z,5.93
2018-02-01T20:58:19.605Z,6.03
2018-02-01T21:00:48.454Z,6.33
2018-02-01T21:03:21.512Z,5.13
2018-02-01T21:05:50.362Z,6.37
2018-02-01T21:08:19.222Z,5.63
2018-02-01T21:10:48.523Z,5.70
2018-02-01T21:13:17.574Z,8.80
2018-02-01T21:15:46.451Z,9.43
2018-02-01T21:18:16.129Z,13.20
2018-02-01T21:20:45.442Z,6.03
2018-02-01T21:23:14.291Z,6.77
2018-02-01T21:25:43.172Z,9.90
2018-02-01T21:28:12.957Z,7.10
2018-02-01T21:30:42.177Z,11.23
2018-02-01T21:33:11.044Z,17.57
2018-02-01T21:35:39.978Z,8.33
2018-02-01T21:38:08.826Z,16.17
2018-02-01T21:40:37.725Z,6.40
2018-02-01T21:43:06.579Z,5.43
2018-02-01T21:45:36.075Z,11.73
2018-02-01T21:48:04.963Z,8.70
2018-02-01T21:50:33.879Z,6.23
2018-02-01T21:53:02.743Z,10.27
2018-02-01T21:55:31.660Z,6.97
2018-02-01T21:58:00.511Z,5.77
2018-02-01T22:00:29.421Z,9.97
2018-02-01T22:02:58.319Z,7.67
2018-02-01T22:05:27.214Z,5.83
2018-02-01T22:07:56.104Z,5.97
2018-02-01T22:10:25.037Z,5.27
2018-02-01T22:12:53.973Z,5.23
2018-02-01T22:15:22.837Z,7.27
2018-02-01T22:17:51.752Z,5.43
2018-02-01T22:20:20.661Z,8.40
2018-02-01T22:25:26.880Z,5.50
2018-02-01T22:27:55.737Z,6.00
2018-02-01T22:30:26.585Z,6.30
2018-02-01T22:35:32.152Z,6.07
2018-02-01T22:38:00.991Z,6.07
2018-02-01T22:40:31.094Z,6.27
2018-02-01T22:42:59.945Z,5.87
2018-02-01T22:45:30.935Z,6.57
2018-02-01T22:47:59.809Z,6.67
2018-02-01T22:50:29.439Z,6.77
2018-02-01T22:52:59.148Z,6.40
2018-02-01T22:55:30.979Z,7.23
2018-02-01T22:58:04.577Z,7.77
2018-02-01T23:00:34.006Z,7.37
2018-02-01T23:03:03.715Z,8.00
2018-02-01T23:05:33.232Z,7.30
2018-02-01T23:08:02.213Z,7.93
2018-02-01T23:10:32.246Z,7.73
2018-02-01T23:13:07.885Z,8.83
2018-02-01T23:15:37.287Z,8.23
2018-02-01T23:18:06.878Z,7.90
2018-02-01T23:23:10.237Z,9.40
2018-02-01T23:25:39.103Z,7.80
2018-02-01T23:28:09.806Z,9.17
2018-02-01T23:30:38.775Z,8.33
2018-02-01T23:33:08.447Z,8.90
2018-02-01T23:35:37.403Z,10.00
2018-02-01T23:38:06.710Z,9.97
2018-02-01T23:40:36.191Z,9.50
2018-02-01T23:43:05.099Z,9.57
2018-02-01T23:45:33.969Z,10.43
2018-02-01T23:48:03.390Z,10.17
2018-02-01T23:50:32.243Z,9.07
2018-02-01T23:53:01.092Z,9.30
2018-02-01T23:55:35.989Z,9.47
2018-02-01T23:58:04.835Z,8.77
